createdAt,value
2022-07-26T00:00:14.478Z,17.40
2022-07-26T00:02:47.784Z,17.40
2022-07-26T00:05:17.309Z,17.40
2022-07-26T00:07:45.476Z,17.40
2022-07-26T00:10:13.590Z,17.40
2022-07-26T00:12:40.782Z,17.40
2022-07-26T00:15:10.757Z,17.40
2022-07-26T00:17:38.686Z,17.40
2022-07-26T00:20:06.436Z,17.40
2022-07-26T00:22:36.272Z,17.40
2022-07-26T00:25:09.569Z,17.40
2022-07-26T00:27:37.534Z,17.30
2022-07-26T00:30:07.769Z,17.30
2022-07-26T00:32:35.134Z,17.30
2022-07-26T00:35:02.384Z,17.30
2022-07-26T00:37:29.472Z,17.30
2022-07-26T00:39:56.747Z,17.30
2022-07-26T00:42:24.155Z,17.30
2022-07-26T00:44:51.962Z,17.30
2022-07-26T00:47:19.418Z,17.30
2022-07-26T00:49:46.657Z,17.30
2022-07-26T00:52:14.526Z,17.30
2022-07-26T00:54:45.760Z,17.30
2022-07-26T00:57:16.358Z,17.30
2022-07-26T00:59:43.587Z,17.30
2022-07-26T01:02:11.004Z,17.30
2022-07-26T01:04:38.516Z,17.30
2022-07-26T01:07:14.684Z,17.30
2022-07-26T01:09:44.025Z,17.30
2022-07-26T01:12:11.277Z,17.30
2022-07-26T01:14:38.352Z,17.40
2022-07-26T01:17:05.718Z,17.30
2022-07-26T01:19:33.059Z,17.30
2022-07-26T01:22:00.339Z,17.30
2022-07-26T01:24:28.383Z,17.30
2022-07-26T01:26:56.966Z,17.30
2022-07-26T01:29:34.686Z,17.30
2022-07-26T01:32:05.190Z,17.30
2022-07-26T01:34:32.754Z,17.40
2022-07-26T01:37:00.378Z,17.30
2022-07-26T01:39:27.540Z,17.30
2022-07-26T01:41:56.984Z,17.30
2022-07-26T01:44:24.382Z,17.30
2022-07-26T01:46:51.602Z,17.20
2022-07-26T01:49:18.845Z,17.30
2022-07-26T01:51:45.975Z,17.20
2022-07-26T01:54:13.342Z,17.10
2022-07-26T01:56:40.528Z,17.10
2022-07-26T01:59:07.877Z,17.10
2022-07-26T02:01:39.637Z,17.10
2022-07-26T02:04:08.534Z,17.10
2022-07-26T02:06:37.333Z,17.10
2022-07-26T02:09:07.485Z,17.10
2022-07-26T02:11:34.883Z,17.10
2022-07-26T02:14:03.425Z,17.10
2022-07-26T02:16:30.479Z,17.10
2022-07-26T02:18:57.971Z,17.10
2022-07-26T02:21:25.095Z,17.10
2022-07-26T02:23:52.196Z,17.10
2022-07-26T02:26:19.279Z,17.10
2022-07-26T02:28:46.944Z,17.10
2022-07-26T02:31:15.454Z,17.10
2022-07-26T02:33:43.139Z,17.10
2022-07-26T02:36:10.386Z,17.10
2022-07-26T02:38:37.680Z,17.10
2022-07-26T02:41:06.454Z,17.10
2022-07-26T02:43:33.774Z,17.10
2022-07-26T02:46:01.664Z,17.10
2022-07-26T02:48:31.904Z,17.10
2022-07-26T02:50:59.290Z,17.00
2022-07-26T02:53:26.455Z,17.10
2022-07-26T02:55:53.483Z,17.10
2022-07-26T02:58:21.866Z,17.10
2022-07-26T03:00:49.211Z,17.10
2022-07-26T03:03:16.506Z,17.10
2022-07-26T03:05:43.669Z,17.10
2022-07-26T03:08:10.866Z,17.10
2022-07-26T03:10:39.055Z,17.00
2022-07-26T03:13:06.291Z,17.00
2022-07-26T03:15:33.381Z,17.00
2022-07-26T03:18:00.495Z,17.00
2022-07-26T03:20:27.854Z,17.00
2022-07-26T03:22:54.938Z,17.00
2022-07-26T03:25:22.040Z,16.90
2022-07-26T03:27:49.265Z,16.90
2022-07-26T03:30:16.576Z,16.80
2022-07-26T03:32:52.265Z,16.80
2022-07-26T03:35:19.320Z,16.80
2022-07-26T03:37:46.757Z,16.80
2022-07-26T03:40:16.159Z,16.80
2022-07-26T03:42:44.223Z,16.70
2022-07-26T03:45:13.116Z,16.70
2022-07-26T03:47:40.297Z,16.70
2022-07-26T03:50:08.578Z,16.70
2022-07-26T03:52:36.057Z,16.70
2022-07-26T03:55:23.275Z,16.70
2022-07-26T03:57:50.396Z,16.70
2022-07-26T04:00:17.753Z,16.60
2022-07-26T04:02:45.294Z,16.60
2022-07-26T04:05:12.708Z,16.60
2022-07-26T04:07:52.823Z,16.60
2022-07-26T04:10:22.049Z,16.60
2022-07-26T04:12:49.999Z,16.60
2022-07-26T04:15:19.226Z,16.60
2022-07-26T04:17:48.558Z,16.50
2022-07-26T04:20:16.941Z,16.50
2022-07-26T04:22:45.191Z,16.40
2022-07-26T04:25:12.583Z,16.40
2022-07-26T04:27:39.798Z,16.30
2022-07-26T04:30:13.975Z,16.30
2022-07-26T04:32:42.329Z,16.30
2022-07-26T04:35:10.005Z,16.30
2022-07-26T04:37:41.633Z,16.20
2022-07-26T04:40:10.518Z,16.20
2022-07-26T04:42:39.312Z,16.20
2022-07-26T04:45:08.524Z,16.20
2022-07-26T04:47:36.662Z,16.30
2022-07-26T04:50:04.929Z,16.20
2022-07-26T04:52:32.677Z,16.20
2022-07-26T04:55:01.067Z,16.20
2022-07-26T04:57:28.381Z,16.20
2022-07-26T05:00:16.748Z,16.20
2022-07-26T05:02:43.057Z,16.20
2022-07-26T05:05:10.215Z,16.20
2022-07-26T05:07:49.161Z,16.20
2022-07-26T05:10:17.935Z,16.20
2022-07-26T05:12:46.814Z,16.10
2022-07-26T05:15:14.616Z,16.10
2022-07-26T05:17:43.284Z,16.20
2022-07-26T05:20:12.512Z,16.20
2022-07-26T05:22:40.519Z,16.20
2022-07-26T05:25:08.995Z,16.20
2022-07-26T05:27:36.458Z,16.20
2022-07-26T05:30:04.124Z,16.20
2022-07-26T05:32:31.423Z,16.10
2022-07-26T05:34:58.696Z,16.10
2022-07-26T05:37:26.164Z,16.10
2022-07-26T05:39:53.393Z,16.10
2022-07-26T05:42:20.716Z,16.10
2022-07-26T05:44:47.833Z,16.10
2022-07-26T05:47:15.369Z,16.00
2022-07-26T05:49:42.450Z,16.10
2022-07-26T05:52:09.800Z,16.00
2022-07-26T05:54:36.944Z,16.00
2022-07-26T05:57:04.830Z,16.10
2022-07-26T05:59:32.712Z,16.20
2022-07-26T06:01:59.807Z,16.30
2022-07-26T06:04:28.971Z,16.30
2022-07-26T06:06:56.158Z,16.30
2022-07-26T06:09:27.191Z,16.30
2022-07-26T06:11:54.636Z,16.30
2022-07-26T06:14:22.340Z,16.30
2022-07-26T06:16:50.129Z,16.30
2022-07-26T06:19:17.318Z,16.30
2022-07-26T06:21:46.254Z,16.30
2022-07-26T06:24:13.924Z,16.40
2022-07-26T06:26:41.141Z,16.50
2022-07-26T06:29:08.501Z,16.50
2022-07-26T06:31:35.601Z,18.10
2022-07-26T06:34:02.800Z,16.60
2022-07-26T06:36:31.135Z,16.60
2022-07-26T06:38:58.673Z,16.60
2022-07-26T06:41:26.043Z,16.50
2022-07-26T06:43:53.637Z,16.50
2022-07-26T06:46:21.439Z,16.60
2022-07-26T06:48:52.701Z,16.60
2022-07-26T06:51:20.294Z,16.70
2022-07-26T06:53:47.386Z,16.80
2022-07-26T06:56:15.204Z,16.70
2022-07-26T06:58:43.175Z,16.80
2022-07-26T07:01:10.385Z,16.90
2022-07-26T07:03:37.585Z,16.90
2022-07-26T07:06:04.751Z,16.90
2022-07-26T07:08:31.910Z,16.90
2022-07-26T07:10:59.116Z,16.80
2022-07-26T07:13:26.441Z,16.80
2022-07-26T07:15:53.771Z,16.90
2022-07-26T07:18:21.572Z,17.00
2022-07-26T07:20:48.694Z,17.10
2022-07-26T07:23:15.779Z,17.20
2022-07-26T07:25:44.608Z,17.30
2022-07-26T07:28:12.271Z,17.30
2022-07-26T07:30:39.382Z,17.40
2022-07-26T07:33:09.522Z,17.40
2022-07-26T07:35:50.514Z,17.40
2022-07-26T07:38:17.822Z,17.40
2022-07-26T07:40:44.919Z,17.50
2022-07-26T07:43:12.028Z,17.50
2022-07-26T07:45:39.195Z,17.50
2022-07-26T07:48:06.595Z,17.50
2022-07-26T07:50:33.762Z,17.50
2022-07-26T07:53:02.187Z,17.40
2022-07-26T07:55:40.398Z,17.40
2022-07-26T07:58:08.823Z,17.50
2022-07-26T08:00:35.939Z,17.60
2022-07-26T08:03:04.469Z,17.60
2022-07-26T08:05:31.657Z,17.50
2022-07-26T08:07:59.226Z,17.60
2022-07-26T08:10:27.065Z,17.70
2022-07-26T08:12:54.185Z,17.70
2022-07-26T08:15:23.552Z,17.70
2022-07-26T08:17:53.777Z,17.60
2022-07-26T08:20:23.506Z,17.70
2022-07-26T08:22:52.367Z,17.60
2022-07-26T08:25:20.161Z,17.50
2022-07-26T08:28:02.590Z,17.50
2022-07-26T08:30:31.236Z,17.60
2022-07-26T08:32:58.893Z,17.60
2022-07-26T08:35:26.376Z,17.50
2022-07-26T08:37:53.461Z,17.50
2022-07-26T08:40:21.078Z,17.40
2022-07-26T08:42:56.155Z,17.40
2022-07-26T08:45:29.753Z,17.40
2022-07-26T08:48:16.746Z,17.40
2022-07-26T08:50:44.935Z,17.40
2022-07-26T08:53:13.338Z,17.40
2022-07-26T08:58:27.803Z,17.60
2022-07-26T09:01:06.151Z,17.70
2022-07-26T09:03:38.085Z,17.70
2022-07-26T09:06:15.416Z,17.80
2022-07-26T09:08:43.791Z,17.80
2022-07-26T09:11:32.783Z,17.80
2022-07-26T09:14:06.699Z,17.70
2022-07-26T09:16:38.842Z,17.60
2022-07-26T09:19:23.796Z,17.60
2022-07-26T09:21:51.970Z,17.70
2022-07-26T09:24:47.720Z,17.70
2022-07-26T09:27:17.921Z,17.70
2022-07-26T09:29:50.589Z,17.80
2022-07-26T09:32:18.914Z,18.00
2022-07-26T09:34:58.735Z,18.00
2022-07-26T09:37:36.900Z,17.90
2022-07-26T09:40:08.289Z,17.90
2022-07-26T09:42:35.471Z,17.90
2022-07-26T09:45:03.973Z,17.90
2022-07-26T09:47:39.598Z,17.90
2022-07-26T09:50:31.309Z,17.90
2022-07-26T09:53:12.926Z,17.90
2022-07-26T09:55:46.132Z,17.90
2022-07-26T09:58:14.635Z,18.00
2022-07-26T10:00:42.587Z,18.00
2022-07-26T10:03:10.133Z,18.00
2022-07-26T10:05:38.069Z,17.90
2022-07-26T10:08:05.935Z,17.90
2022-07-26T10:10:38.002Z,17.70
2022-07-26T10:13:07.207Z,17.70
2022-07-26T10:15:41.294Z,17.60
2022-07-26T10:18:16.663Z,17.50
2022-07-26T10:20:50.991Z,17.20
2022-07-26T10:23:39.108Z,17.00
2022-07-26T10:26:09.863Z,16.90
2022-07-26T10:28:38.884Z,17.00
2022-07-26T10:31:21.501Z,17.10
2022-07-26T10:33:50.602Z,17.20
2022-07-26T10:36:30.076Z,17.20
2022-07-26T10:39:07.853Z,17.00
2022-07-26T10:41:39.594Z,16.90
2022-07-26T10:44:16.463Z,16.70
2022-07-26T10:46:58.101Z,16.70
2022-07-26T10:49:36.403Z,16.60
2022-07-26T10:52:12.707Z,16.70
2022-07-26T10:54:58.248Z,16.70
2022-07-26T10:57:28.009Z,16.90
2022-07-26T10:59:59.478Z,17.00
2022-07-26T11:02:32.677Z,17.20
2022-07-26T11:05:12.812Z,17.30
2022-07-26T11:08:10.995Z,17.40
2022-07-26T11:10:41.878Z,17.40
2022-07-26T11:13:16.617Z,17.50
2022-07-26T11:15:49.339Z,17.60
2022-07-26T11:18:25.240Z,17.80
2022-07-26T11:20:57.500Z,18.00
2022-07-26T11:23:27.562Z,18.00
2022-07-26T11:26:27.190Z,17.90
2022-07-26T11:29:06.138Z,17.70
2022-07-26T11:31:51.155Z,17.60
2022-07-26T11:34:29.460Z,17.50
2022-07-26T11:36:58.505Z,17.60
2022-07-26T11:39:31.356Z,17.60
2022-07-26T11:42:06.719Z,17.60
2022-07-26T11:44:34.458Z,17.50
2022-07-26T11:47:19.137Z,17.30
2022-07-26T11:49:51.845Z,17.20
2022-07-26T11:52:34.052Z,17.40
2022-07-26T11:55:01.240Z,17.40
2022-07-26T11:57:30.539Z,17.60
2022-07-26T11:59:59.782Z,17.70
2022-07-26T12:02:28.148Z,17.70
2022-07-26T12:05:18.848Z,17.80
2022-07-26T12:08:00.856Z,17.70
2022-07-26T12:10:27.898Z,17.60
2022-07-26T12:13:15.987Z,17.60
2022-07-26T12:15:52.251Z,17.70
2022-07-26T12:18:30.949Z,17.70
2022-07-26T12:21:06.708Z,17.80
2022-07-26T12:23:48.823Z,18.00
2022-07-26T12:26:27.449Z,18.10
2022-07-26T12:28:55.839Z,17.90
2022-07-26T12:31:31.326Z,17.80
2022-07-26T12:33:59.082Z,17.80
2022-07-26T12:36:27.687Z,17.80
2022-07-26T12:38:57.945Z,17.80
2022-07-26T12:41:36.198Z,17.90
2022-07-26T12:44:05.203Z,18.00
2022-07-26T12:46:34.705Z,18.00
2022-07-26T12:49:02.163Z,18.00
2022-07-26T12:51:29.333Z,17.90
2022-07-26T12:53:56.438Z,17.80
2022-07-26T12:56:23.625Z,17.90
2022-07-26T12:58:50.687Z,17.90
2022-07-26T13:01:17.797Z,18.00
2022-07-26T13:03:45.053Z,18.10
2022-07-26T13:06:12.934Z,18.10
2022-07-26T13:08:40.692Z,18.20
2022-07-26T13:11:07.801Z,18.10
2022-07-26T13:13:35.010Z,18.00
2022-07-26T13:16:02.091Z,17.90
2022-07-26T13:18:29.401Z,17.80
2022-07-26T13:20:57.227Z,17.80
2022-07-26T13:23:24.327Z,17.80
2022-07-26T13:25:54.047Z,17.70
2022-07-26T13:28:21.749Z,17.70
2022-07-26T13:30:48.898Z,17.60
2022-07-26T13:33:16.887Z,17.50
2022-07-26T13:35:43.936Z,17.50
2022-07-26T13:38:11.237Z,17.50
2022-07-26T13:40:38.714Z,17.50
2022-07-26T13:43:05.780Z,17.60
2022-07-26T13:45:32.841Z,17.70
2022-07-26T13:48:00.196Z,18.00
2022-07-26T13:50:28.512Z,18.10
2022-07-26T13:52:58.847Z,18.10
2022-07-26T13:55:26.020Z,18.20
2022-07-26T13:57:56.582Z,18.20
2022-07-26T14:00:26.420Z,18.20
2022-07-26T14:02:54.532Z,18.20
2022-07-26T14:05:21.744Z,18.20
2022-07-26T14:07:49.019Z,18.30
2022-07-26T14:10:16.378Z,18.20
2022-07-26T14:12:43.649Z,18.30
2022-07-26T14:15:15.120Z,18.20
2022-07-26T14:17:47.416Z,18.10
2022-07-26T14:20:17.352Z,18.30
2022-07-26T14:22:45.031Z,18.30
2022-07-26T14:25:12.497Z,18.20
2022-07-26T14:27:39.728Z,18.10
2022-07-26T14:30:07.709Z,18.10
2022-07-26T14:32:34.849Z,18.10
2022-07-26T14:35:02.124Z,18.10
2022-07-26T14:37:43.504Z,18.20
2022-07-26T14:40:17.101Z,18.20
2022-07-26T14:42:45.771Z,18.20
2022-07-26T14:45:13.662Z,18.10
2022-07-26T14:47:41.329Z,18.10
2022-07-26T14:50:10.297Z,18.00
2022-07-26T14:52:46.585Z,18.10
2022-07-26T14:55:14.797Z,18.10
2022-07-26T14:57:42.309Z,18.20
2022-07-26T15:00:15.942Z,18.20
2022-07-26T15:02:46.010Z,18.10
2022-07-26T15:05:14.367Z,18.10
2022-07-26T15:07:42.222Z,18.00
2022-07-26T15:10:12.115Z,18.00
2022-07-26T15:12:40.066Z,18.00
2022-07-26T15:15:08.826Z,18.20
2022-07-26T15:17:36.442Z,18.20
2022-07-26T15:20:05.277Z,18.20
2022-07-26T15:22:32.422Z,18.10
2022-07-26T15:24:59.479Z,18.10
2022-07-26T15:27:26.653Z,18.20
2022-07-26T15:29:56.193Z,18.30
2022-07-26T15:32:25.484Z,18.40
2022-07-26T15:34:52.594Z,18.40
2022-07-26T15:37:19.946Z,18.50
2022-07-26T15:39:47.028Z,18.60
2022-07-26T15:42:16.032Z,20.00
2022-07-26T15:44:43.259Z,18.60
2022-07-26T15:47:10.913Z,18.50
2022-07-26T15:49:40.600Z,18.50
2022-07-26T15:52:11.636Z,18.50
2022-07-26T15:54:40.893Z,18.70
2022-07-26T15:57:08.240Z,18.80
2022-07-26T15:59:35.744Z,18.80
2022-07-26T16:02:05.639Z,18.70
2022-07-26T16:04:32.742Z,18.60
2022-07-26T16:06:59.892Z,18.50
2022-07-26T16:09:27.007Z,18.50
2022-07-26T16:11:54.238Z,18.40
2022-07-26T16:14:21.453Z,18.40
2022-07-26T16:16:48.598Z,18.30
2022-07-26T16:19:16.043Z,18.20
2022-07-26T16:21:43.819Z,18.10
2022-07-26T16:24:10.935Z,18.00
2022-07-26T16:26:38.062Z,18.00
2022-07-26T16:29:06.126Z,18.20
2022-07-26T16:31:33.505Z,18.30
2022-07-26T16:34:01.065Z,18.50
2022-07-26T16:36:28.739Z,18.50
2022-07-26T16:38:55.786Z,18.30
2022-07-26T16:41:22.869Z,18.20
2022-07-26T16:43:50.082Z,18.20
2022-07-26T16:46:17.644Z,18.30
2022-07-26T16:48:45.153Z,18.50
2022-07-26T16:51:13.855Z,18.60
2022-07-26T16:53:41.467Z,18.70
2022-07-26T16:56:09.075Z,18.80
2022-07-26T16:58:37.696Z,18.80
2022-07-26T17:01:04.855Z,19.00
2022-07-26T17:03:32.053Z,19.00
2022-07-26T17:06:04.292Z,18.90
2022-07-26T17:08:33.605Z,18.80
2022-07-26T17:11:01.007Z,18.60
2022-07-26T17:13:28.093Z,18.40
2022-07-26T17:15:55.198Z,18.40
2022-07-26T17:18:22.541Z,18.20
2022-07-26T17:20:49.766Z,18.10
2022-07-26T17:23:18.725Z,17.90
2022-07-26T17:25:46.623Z,17.90
2022-07-26T17:28:14.132Z,18.00
2022-07-26T17:30:41.260Z,18.00
2022-07-26T17:33:08.547Z,18.00
2022-07-26T17:35:35.657Z,18.40
2022-07-26T17:38:02.723Z,18.80
2022-07-26T17:40:31.871Z,18.90
2022-07-26T17:42:59.562Z,18.60
2022-07-26T17:45:26.649Z,18.20
2022-07-26T17:47:53.939Z,18.00
2022-07-26T17:50:37.788Z,17.70
2022-07-26T17:53:06.069Z,17.70
2022-07-26T17:55:33.187Z,17.70
2022-07-26T17:58:00.249Z,18.50
2022-07-26T18:00:28.856Z,19.20
2022-07-26T18:02:56.966Z,20.10
2022-07-26T18:05:30.124Z,20.90
2022-07-26T18:07:59.997Z,21.40
2022-07-26T18:10:28.327Z,21.40
2022-07-26T18:12:55.969Z,22.00
2022-07-26T18:15:23.126Z,22.50
2022-07-26T18:17:50.216Z,23.00
2022-07-26T18:20:17.325Z,22.90
2022-07-26T18:22:45.864Z,22.50
2022-07-26T18:25:17.478Z,21.50
2022-07-26T18:27:44.522Z,20.90
2022-07-26T18:30:11.810Z,20.20
2022-07-26T18:32:38.891Z,19.80
2022-07-26T18:35:06.603Z,19.40
2022-07-26T18:37:33.931Z,18.90
2022-07-26T18:40:01.140Z,18.50
2022-07-26T18:42:28.464Z,18.30
2022-07-26T18:44:55.811Z,18.00
2022-07-26T18:47:22.934Z,17.80
2022-07-26T18:49:50.393Z,17.60
2022-07-26T18:52:31.841Z,17.50
2022-07-26T18:55:06.923Z,17.30
2022-07-26T18:57:35.638Z,17.10
2022-07-26T19:00:10.478Z,17.00
2022-07-26T19:02:37.666Z,16.70
2022-07-26T19:05:05.958Z,16.60
2022-07-26T19:07:33.128Z,16.50
2022-07-26T19:10:00.355Z,16.40
2022-07-26T19:12:28.541Z,16.40
2022-07-26T19:14:56.096Z,16.30
2022-07-26T19:17:23.414Z,16.20
2022-07-26T19:19:50.568Z,16.20
2022-07-26T19:22:17.683Z,17.40
2022-07-26T19:24:44.879Z,16.00
2022-07-26T19:27:12.324Z,15.90
2022-07-26T19:29:40.949Z,15.90
2022-07-26T19:32:08.473Z,15.80
2022-07-26T19:34:35.782Z,15.80
2022-07-26T19:37:03.529Z,15.70
2022-07-26T19:39:30.828Z,15.70
2022-07-26T19:41:58.145Z,15.60
2022-07-26T19:44:25.321Z,15.60
2022-07-26T19:46:57.301Z,15.60
2022-07-26T19:49:25.088Z,15.50
2022-07-26T19:51:52.418Z,15.50
2022-07-26T19:54:19.588Z,15.50
2022-07-26T19:56:46.698Z,15.40
2022-07-26T19:59:18.019Z,15.40
2022-07-26T20:01:50.062Z,15.40
2022-07-26T20:04:17.444Z,15.40
2022-07-26T20:06:44.495Z,15.30
2022-07-26T20:09:11.844Z,15.30
2022-07-26T20:11:39.185Z,15.30
2022-07-26T20:14:06.258Z,15.30
2022-07-26T20:16:33.438Z,15.30
2022-07-26T20:19:01.023Z,15.30
2022-07-26T20:21:28.101Z,15.20
2022-07-26T20:23:55.199Z,15.20
2022-07-26T20:26:23.197Z,15.20
2022-07-26T20:28:51.110Z,15.10
2022-07-26T20:31:18.213Z,15.10
2022-07-26T20:33:45.372Z,15.00
2022-07-26T20:36:12.480Z,15.00
2022-07-26T20:38:39.681Z,15.00
2022-07-26T20:41:07.034Z,15.00
2022-07-26T20:43:34.615Z,15.00
2022-07-26T20:46:02.246Z,15.00
2022-07-26T20:48:29.678Z,15.00
2022-07-26T20:50:56.741Z,15.00
2022-07-26T20:53:23.788Z,14.90
2022-07-26T20:55:50.976Z,15.00
2022-07-26T20:58:18.277Z,15.00
2022-07-26T21:00:45.337Z,15.00
2022-07-26T21:03:13.964Z,15.00
2022-07-26T21:05:41.082Z,15.00
2022-07-26T21:08:08.173Z,15.10
2022-07-26T21:10:35.401Z,15.10
2022-07-26T21:13:02.712Z,15.10
2022-07-26T21:15:30.415Z,15.10
2022-07-26T21:17:58.323Z,15.00
2022-07-26T21:20:25.686Z,15.00
2022-07-26T21:22:52.761Z,15.00
2022-07-26T21:25:20.036Z,15.00
2022-07-26T21:27:47.138Z,15.00
2022-07-26T21:30:14.353Z,15.00
2022-07-26T21:32:41.449Z,15.00
2022-07-26T21:35:08.644Z,15.00
2022-07-26T21:37:35.691Z,15.00
2022-07-26T21:40:03.177Z,15.00
2022-07-26T21:42:30.245Z,15.00
2022-07-26T21:44:57.265Z,15.10
2022-07-26T21:47:24.376Z,15.00
2022-07-26T21:49:51.405Z,15.10
2022-07-26T21:52:18.471Z,15.10
2022-07-26T21:54:45.853Z,15.10
2022-07-26T21:57:12.945Z,15.10
2022-07-26T21:59:40.036Z,15.10
2022-07-26T22:02:07.718Z,15.10
2022-07-26T22:04:35.438Z,15.10
2022-07-26T22:07:02.774Z,15.10
2022-07-26T22:09:33.886Z,15.10
2022-07-26T22:12:01.283Z,15.10
2022-07-26T22:14:28.562Z,15.10
2022-07-26T22:16:55.965Z,15.10
2022-07-26T22:19:23.052Z,15.10
2022-07-26T22:21:50.180Z,15.10
2022-07-26T22:24:17.271Z,15.00
2022-07-26T22:26:44.449Z,15.00
2022-07-26T22:29:11.835Z,14.90
2022-07-26T22:31:39.322Z,14.90
2022-07-26T22:34:06.441Z,14.90
2022-07-26T22:36:33.585Z,14.80
2022-07-26T22:39:07.299Z,14.80
2022-07-26T22:41:57.486Z,14.70
2022-07-26T22:44:23.360Z,14.70
2022-07-26T22:46:50.409Z,14.70
2022-07-26T22:49:17.719Z,14.60
2022-07-26T22:51:45.008Z,14.60
2022-07-26T22:54:12.278Z,14.60
2022-07-26T22:56:39.433Z,14.60
2022-07-26T22:59:06.572Z,14.60
2022-07-26T23:01:33.899Z,14.60
2022-07-26T23:04:01.063Z,14.60
2022-07-26T23:06:32.523Z,14.60
2022-07-26T23:08:59.745Z,14.60
2022-07-26T23:11:26.823Z,14.60
2022-07-26T23:13:58.921Z,14.60
2022-07-26T23:16:26.748Z,14.60
2022-07-26T23:18:54.011Z,14.60
2022-07-26T23:21:21.335Z,14.60
2022-07-26T23:23:48.497Z,14.60
2022-07-26T23:26:15.648Z,14.60
2022-07-26T23:28:42.819Z,14.60
2022-07-26T23:31:11.731Z,14.60
2022-07-26T23:33:51.415Z,14.50
2022-07-26T23:36:28.635Z,14.50
2022-07-26T23:38:57.381Z,14.50
2022-07-26T23:41:25.143Z,14.50
2022-07-26T23:43:53.001Z,14.50
2022-07-26T23:46:20.562Z,14.50
2022-07-26T23:48:47.983Z,14.50
2022-07-26T23:51:15.301Z,14.50
2022-07-26T23:53:42.754Z,14.50
2022-07-26T23:56:09.990Z,14.50
2022-07-26T23:58:37.740Z,14.40
